Portada
METAR-TAF:

METAR-TAF

Aeroports :

Calvi, França

latitud: 42-32N, longitud: 008-48E, altitud: 64 m

Observació

L'informe es va fer fa 27 minuts, a les 20:00 UTC
Vent 6 kt del Sud/Sud-Oest
Temperatura 20°C
Humitat 73%
Pressió 1014 hPa
Visibilitat 10 km o més
sense núvols per sota de 1500 mi sense presència de cumulonimbus.

METAR: LFKC 162000Z AUTO 21006KT CAVOK 20/15 Q1014 NOSIG

Hora: 22:27 (20:27 UTC)

Pronòstic

L'informe es va fer fa 6 hores i 27 minuts, a les 14:00 UTC
Pronòstic vàlid del 16 a les 15 UTC al 17 a les 15 UTC
Vent 12 kt del Nord
Visibilitat 10 km o més
sense núvols per sota de 1500 mi sense presència de cumulonimbus.
Evolucionant progressivament
l' 16 a les 17 UTC al 16 a les 19 UTC
Vent 6 kt del Sud
Evolucionant progressivament
l' 17 a les 08 UTC al 17 a les 09 UTC
Vent 12 kt del Sud-Oest

TAF: LFKC 161400Z 1615/1715 35012KT CAVOK TX30/1712Z TN19/1700Z BECMG 1617/1619 18006KT BECMG 1708/1709 23012KT

Observacions i pronòstics meteorològics de més de 4000 aeroports (METAR i TAF).

Les estacions disponibles són els punts grocs i vermells al mapa.

Posi el ratolí al punt desitjat per veure el nom de l'estació.

Feu clic per veure les observacions i els pronòstics meteorològics.

Per canviar el mapa: feu clic els botons verds amb una creu de color negre per apropar; al botó verd amb un guió per allunyar la imatge; o en les fletxes verdes per a mapes adjacents.


METAR-TAF: